»·PEaware :: SWA233 KELP-KABQ

SWA233 :: KELP-KABQ

FLIGHT INFORMATION

Flight Status: Arrived
Operator:
Southwest Airlines
More flights by this operator :: More flights under this callsign
Pilot: Anonymous 34646 (34646)
Aircraft: BOEING 737-700
(B737)
More flights by this aircraft type
Origin: KELP El Paso Intl
United States
Destination: KABQ Albuquerque Intl Sunport
United States
More flights between these airports :: More routes between these airports
Route: ATKNN5 SLNNK ONM ABQ
File this flight plan on PilotEdge
Remarks: RMK / SIMBRIEF
Altitude:
(Current/Filed)
30,000ft
Speed:
(Current/Filed)
446kts
Departed: 27-Apr-21 09:37 AM
Arrived: 27-Apr-21 10:14 AM
Distance/Time
Traveled:
195nm/0:37
Distance/Time
To Go:
Arrived

Flight Plot

Page will automatically refresh every two minutes.

Flight plan parsing failed; only flown route is shown


Map Options




Map Legend


Flown Route
Filed Route
Departure Airport
Arrival Airport
Navaid (VOR, NDB)
Fix

Horizontal Profiles

Position Reports

Time Latitude Longitude Heading Altitude Ground
Speed
27-Apr-21 09:10 31.800076 -106.396154 193 3966ft 0kts
27-Apr-21 09:10 31.800076 -106.396154 193 3966ft 0kts
27-Apr-21 09:11 31.800076 -106.396154 193 3966ft 0kts
27-Apr-21 09:12 31.800076 -106.396154 193 3966ft 0kts
27-Apr-21 09:13 31.800076 -106.396154 193 3966ft 0kts
27-Apr-21 09:14 31.800076 -106.396154 193 3966ft 0kts
27-Apr-21 09:15 31.800076 -106.396154 193 3966ft 0kts
27-Apr-21 09:16 31.800076 -106.396154 193 3966ft 0kts
27-Apr-21 09:17 31.800076 -106.396154 193 3966ft 0kts
27-Apr-21 09:18 31.800076 -106.396154 193 3966ft 0kts
27-Apr-21 09:19 31.800076 -106.396154 193 3966ft 0kts
27-Apr-21 09:20 31.800076 -106.396154 193 3966ft 0kts
27-Apr-21 09:21 31.800238 -106.396108 193 3966ft 2kts
27-Apr-21 09:22 31.800775 -106.395958 192 3966ft 0kts
27-Apr-21 09:23 31.800775 -106.395958 192 3966ft 0kts
27-Apr-21 09:24 31.800775 -106.395958 192 3966ft 0kts
27-Apr-21 09:25 31.800775 -106.395958 192 3966ft 0kts
27-Apr-21 09:26 31.801007 -106.395557 26 3966ft 4kts
27-Apr-21 09:27 31.801187 -106.393960 89 3966ft 4kts
27-Apr-21 09:28 31.800291 -106.390586 90 3966ft 12kts
27-Apr-21 09:29 31.800098 -106.386924 93 3966ft 12kts
27-Apr-21 09:30 31.799857 -106.380763 92 3966ft 18kts
27-Apr-21 09:31 31.799654 -106.375329 92 3966ft 14kts
27-Apr-21 09:32 31.799433 -106.369412 92 3966ft 19kts
27-Apr-21 09:33 31.799242 -106.363980 71 3966ft 6kts
27-Apr-21 09:34 31.799688 -106.363803 1 3966ft 0kts
27-Apr-21 09:35 31.800542 -106.363781 355 3966ft 11kts
27-Apr-21 09:36 31.802098 -106.387776 274 4192ft 166kts
27-Apr-21 09:37 31.787615 -106.439028 239 6904ft 206kts
27-Apr-21 09:38 31.758875 -106.504697 266 9761ft 263kts
27-Apr-21 09:39 31.814954 -106.572880 338 12166ft 369kts
27-Apr-21 09:40 31.918763 -106.604783 345 15515ft 404kts
27-Apr-21 09:41 32.031164 -106.630295 325 18765ft 406kts
27-Apr-21 09:42 32.114763 -106.713167 305 21584ft 403kts
27-Apr-21 09:43 32.211140 -106.794189 315 23944ft 438kts
27-Apr-21 09:44 32.314608 -106.875032 315 26143ft 454kts
27-Apr-21 09:45 32.421416 -106.958944 315 28019ft 469kts
27-Apr-21 09:46 32.530281 -107.044286 314 29858ft 465kts
27-Apr-21 09:47 32.638547 -107.129736 314 29949ft 467kts
27-Apr-21 09:48 32.746673 -107.215111 314 29943ft 467kts
27-Apr-21 09:49 32.854654 -107.301010 314 29934ft 467kts
27-Apr-21 09:50 32.971462 -107.372554 342 29923ft 506kts
27-Apr-21 09:51 33.112788 -107.343241 8 29929ft 523kts
27-Apr-21 09:52 33.255011 -107.308043 6 29920ft 521kts
27-Apr-21 09:53 33.395165 -107.260522 18 29921ft 527kts
27-Apr-21 09:54 33.531222 -107.196539 18 29920ft 526kts
27-Apr-21 09:55 33.668061 -107.133224 18 28107ft 525kts
27-Apr-21 09:56 33.803120 -107.070807 18 25488ft 512kts
27-Apr-21 09:57 33.932757 -107.010553 18 23203ft 488kts
27-Apr-21 09:58 34.055902 -106.953235 17 20646ft 458kts
27-Apr-21 09:59 34.171347 -106.899253 17 17762ft 432kts
27-Apr-21 10:00 34.280095 -106.848152 18 15394ft 399kts
27-Apr-21 10:01 34.378987 -106.819301 355 14982ft 344kts
27-Apr-21 10:02 34.474652 -106.819381 353 14533ft 341kts
27-Apr-21 10:03 34.568017 -106.811333 16 12734ft 335kts
27-Apr-21 10:04 34.653026 -106.771048 19 9983ft 317kts
27-Apr-21 10:05 34.727718 -106.735596 19 8990ft 269kts
27-Apr-21 10:06 34.791035 -106.690747 36 8989ft 267kts
27-Apr-21 10:07 34.849926 -106.636406 36 8938ft 252kts
27-Apr-21 10:08 34.899652 -106.590382 36 8957ft 207kts
27-Apr-21 10:09 34.948340 -106.552456 28 8221ft 203kts
27-Apr-21 10:10 34.993241 -106.520686 28 7276ft 175kts
27-Apr-21 10:11 35.036360 -106.518309 315 6379ft 161kts
27-Apr-21 10:12 35.043989 -106.568694 269 5465ft 149kts
27-Apr-21 10:13 35.045341 -106.599303 300 5320ft 34kts
27-Apr-21 10:14 35.045763 -106.609217 270 5320ft 24kts
27-Apr-21 10:15 35.046182 -106.614112 304 5320ft 4kts
27-Apr-21 10:16 35.046853 -106.614472 342 5320ft 0kts
27-Apr-21 10:17 35.046853 -106.614472 342 5320ft 0kts

Navigation Log

Ident Type
Flight plan parsing failed, navigation log unavailable